createdAt,value
2018-09-25T00:01:26.644Z,4.0
2018-09-25T00:11:26.386Z,3.3
2018-09-25T00:21:26.343Z,3.9
2018-09-25T00:31:27.050Z,3.7
2018-09-25T00:41:26.167Z,3.7
2018-09-25T00:51:25.884Z,4.3
2018-09-25T01:01:26.752Z,4.0
2018-09-25T01:11:27.052Z,5.0
2018-09-25T01:21:26.605Z,3.7
2018-09-25T01:31:26.386Z,4.1
2018-09-25T01:41:26.129Z,4.3
2018-09-25T01:51:26.268Z,3.7
2018-09-25T02:01:26.649Z,3.7
2018-09-25T02:11:26.665Z,3.9
2018-09-25T02:21:27.009Z,3.6
2018-09-25T02:31:26.703Z,3.1
2018-09-25T02:41:27.235Z,4.0
2018-09-25T02:51:26.656Z,3.8
2018-09-25T03:01:26.453Z,4.0
2018-09-25T03:11:26.930Z,3.6
2018-09-25T03:21:26.757Z,3.7
2018-09-25T03:31:26.563Z,3.3
2018-09-25T03:41:26.326Z,4.2
2018-09-25T03:51:26.676Z,3.7
2018-09-25T04:01:27.220Z,4.0
2018-09-25T04:11:26.030Z,3.5
2018-09-25T04:21:31.524Z,3.3
2018-09-25T04:31:26.727Z,3.8
2018-09-25T04:41:26.592Z,3.6
2018-09-25T04:51:32.623Z,4.7
2018-09-25T05:01:26.514Z,4.9
2018-09-25T05:11:26.405Z,4.7
2018-09-25T05:21:26.334Z,5.8
2018-09-25T05:31:26.026Z,4.0
2018-09-25T05:41:27.957Z,3.2
2018-09-25T05:51:26.717Z,2.8
2018-09-25T06:01:27.235Z,2.8
2018-09-25T06:11:27.588Z,2.8
2018-09-25T06:21:26.449Z,2.5
2018-09-25T06:31:26.570Z,3.4
2018-09-25T06:41:26.727Z,3.3
2018-09-25T06:51:26.674Z,3.2
2018-09-25T07:01:26.847Z,3.7
2018-09-25T07:11:26.832Z,3.0
2018-09-25T07:21:27.532Z,2.9
2018-09-25T07:31:26.384Z,2.7
2018-09-25T07:41:29.515Z,2.9
2018-09-25T07:51:27.983Z,3.3
2018-09-25T08:01:26.713Z,2.3
2018-09-25T08:11:26.701Z,3.0
2018-09-25T08:21:28.116Z,2.5
2018-09-25T08:31:26.727Z,2.8
2018-09-25T08:41:26.499Z,1.4
2018-09-25T08:51:26.189Z,2.6
2018-09-25T09:01:27.747Z,2.5
2018-09-25T09:11:27.690Z,2.9
2018-09-25T09:21:27.438Z,2.6
2018-09-25T09:31:27.857Z,2.6
2018-09-25T09:41:27.080Z,2.2
2018-09-25T09:51:25.938Z,2.5
2018-09-25T10:01:26.959Z,2.2
2018-09-25T10:11:26.837Z,2.4
2018-09-25T10:21:25.782Z,2.8
2018-09-25T10:31:26.519Z,2.0
2018-09-25T10:41:26.351Z,1.7
2018-09-25T10:51:26.858Z,1.8
2018-09-25T11:01:27.287Z,2.1
2018-09-25T11:11:26.028Z,1.6
2018-09-25T11:21:26.665Z,2.1
2018-09-25T11:31:27.109Z,1.9
2018-09-25T11:41:25.991Z,2.1
2018-09-25T11:51:26.101Z,1.5
2018-09-25T12:01:26.272Z,1.7
2018-09-25T12:11:26.851Z,1.6
2018-09-25T12:21:27.963Z,1.8
2018-09-25T12:31:26.232Z,2.0
2018-09-25T12:41:28.030Z,1.4
2018-09-25T12:51:25.883Z,1.5
2018-09-25T13:01:27.303Z,1.4
2018-09-25T13:11:28.071Z,2.1
2018-09-25T13:21:32.115Z,1.9
2018-09-25T13:31:31.682Z,1.4
2018-09-25T13:41:27.723Z,1.4
2018-09-25T13:51:31.985Z,1.3
2018-09-25T14:01:32.572Z,1.6
2018-09-25T14:11:31.864Z,1.3
2018-09-25T14:21:26.131Z,1.5
2018-09-25T14:31:26.104Z,1.2
2018-09-25T14:41:26.140Z,1.5
2018-09-25T14:51:26.196Z,1.5
2018-09-25T15:01:26.044Z,1.5
2018-09-25T15:11:29.875Z,1.3
2018-09-25T15:21:26.610Z,1.4
2018-09-25T15:31:26.346Z,1.4
2018-09-25T15:41:26.033Z,1.4
2018-09-25T15:51:28.080Z,1.9
2018-09-25T16:01:29.386Z,1.8
2018-09-25T16:11:26.368Z,1.6
2018-09-25T16:21:26.282Z,2.0
2018-09-25T16:31:26.648Z,2.3
2018-09-25T16:41:31.877Z,2.9
2018-09-25T16:51:27.520Z,2.4
2018-09-25T17:01:26.661Z,2.6
2018-09-25T17:11:26.795Z,2.8
2018-09-25T17:21:28.959Z,3.7
2018-09-25T17:31:28.775Z,3.0
2018-09-25T17:41:28.926Z,3.5
2018-09-25T17:51:27.327Z,3.2
2018-09-25T18:01:26.089Z,3.7
2018-09-25T18:11:26.088Z,3.9
2018-09-25T18:21:26.761Z,3.9
2018-09-25T18:31:26.532Z,4.2
2018-09-25T18:41:27.471Z,4.8
2018-09-25T18:51:26.463Z,4.5
2018-09-25T19:01:26.944Z,4.9
2018-09-25T19:11:26.437Z,5.3
2018-09-25T19:21:27.251Z,5.9
2018-09-25T19:31:27.054Z,5.8
2018-09-25T19:41:26.078Z,7.1
2018-09-25T19:51:25.875Z,7.0
2018-09-25T20:01:26.652Z,9.7
2018-09-25T20:11:26.600Z,9.8
2018-09-25T20:21:26.953Z,12.3
2018-09-25T20:31:29.290Z,8.9
2018-09-25T20:41:26.217Z,8.2
2018-09-25T20:51:27.556Z,8.0
2018-09-25T21:01:26.549Z,8.4
2018-09-25T21:11:26.889Z,8.9
2018-09-25T21:21:26.038Z,9.4
2018-09-25T21:31:25.837Z,9.2
2018-09-25T21:41:26.932Z,8.5
2018-09-25T21:51:26.027Z,9.1
2018-09-25T22:01:28.621Z,10.1
2018-09-25T22:11:27.463Z,10.6
2018-09-25T22:21:26.279Z,11.6
2018-09-25T22:31:26.254Z,11.6
2018-09-25T22:41:26.179Z,11.8
2018-09-25T22:51:26.882Z,13.6
2018-09-25T23:01:27.045Z,12.9
2018-09-25T23:11:27.814Z,14.3
2018-09-25T23:21:27.282Z,13.9
2018-09-25T23:31:26.001Z,15.6
2018-09-25T23:41:26.790Z,17.4
2018-09-25T23:51:27.159Z,15.6
